Time;durP1;ratioP1;P1;durP2;ratioP2;P2;SDS_P1;SDS_P2;PMS_P1;PMS_P2;Temp;Humidity;BMP_temperature;BMP_pressure;BME280_temperature;BME280_humidity;BME280_pressure;Samples;Min_cycle;Max_cycle;Signal;HPM_P1;HPM_P2
2023/12/09 00:01:35;;;;;;;55.50;22.43;;;;;;;;;;5023640;28;20451;-80
2023/12/09 00:04:03;;;;;;;41.43;17.70;;;;;;;;;;5021830;28;20803;-81
2023/12/09 00:06:31;;;;;;;56.83;19.60;;;;;;;;;;5022301;28;20464;-80
2023/12/09 00:08:59;;;;;;;52.07;17.83;;;;;;;;;;5020813;28;20458;-80
2023/12/09 00:11:28;;;;;;;47.40;19.27;;;;;;;;;;5020468;28;20856;-77
2023/12/09 00:13:56;;;;;;;48.37;20.30;;;;;;;;;;5018291;28;20527;-79
2023/12/09 00:16:24;;;;;;;46.70;18.20;;;;;;;;;;5020086;28;20464;-78
2023/12/09 00:18:51;;;;;;;53.73;20.30;;;;;;;;;;5020453;28;20455;-79
2023/12/09 00:21:19;;;;;;;52.50;20.30;;;;;;;;;;5023171;28;20454;-79
2023/12/09 00:23:47;;;;;;;55.53;20.90;;;;;;;;;;5024015;28;20485;-80
2023/12/09 00:26:14;;;;;;;51.73;20.00;;;;;;;;;;5022004;28;21133;-79
2023/12/09 00:28:44;;;;;;;44.77;16.33;;;;;;;;;;5022333;28;20466;-80
2023/12/09 00:31:12;;;;;;;49.37;19.70;;;;;;;;;;5022514;28;20530;-80
2023/12/09 00:33:39;;;;;;;48.20;17.83;;;;;;;;;;5018110;28;20454;-78
2023/12/09 00:36:07;;;;;;;66.53;18.70;;;;;;;;;;5023000;28;20512;-81
2023/12/09 00:38:35;;;;;;;47.23;18.17;;;;;;;;;;5023302;28;20505;-79
2023/12/09 00:41:06;;;;;;;51.03;18.73;;;;;;;;;;5024282;28;20459;-80
2023/12/09 00:43:35;;;;;;;55.17;20.00;;;;;;;;;;5023709;28;20462;-77
2023/12/09 00:46:04;;;;;;;56.63;18.67;;;;;;;;;;5023076;28;20491;-79
2023/12/09 00:48:32;;;;;;;49.33;18.97;;;;;;;;;;5022044;28;20454;-78
2023/12/09 00:50:59;;;;;;;52.63;19.47;;;;;;;;;;5023036;28;20494;-79
2023/12/09 00:53:27;;;;;;;57.67;18.17;;;;;;;;;;5024357;28;20449;-79
2023/12/09 00:55:55;;;;;;;46.03;20.10;;;;;;;;;;5024328;28;20446;-80
2023/12/09 00:58:23;;;;;;;61.10;18.70;;;;;;;;;;5022827;28;20472;-79
2023/12/09 01:00:50;;;;;;;49.83;19.60;;;;;;;;;;5021533;28;20474;-79
2023/12/09 01:03:19;;;;;;;54.13;19.57;;;;;;;;;;5021005;28;20531;-79
2023/12/09 01:05:47;;;;;;;44.00;18.90;;;;;;;;;;5021780;28;20786;-80
2023/12/09 01:08:15;;;;;;;49.67;17.60;;;;;;;;;;5021268;28;20460;-79
2023/12/09 01:10:42;;;;;;;46.57;18.23;;;;;;;;;;5021979;28;20458;-80
2023/12/09 01:13:10;;;;;;;47.03;17.30;;;;;;;;;;5020462;28;20493;-79
2023/12/09 01:15:39;;;;;;;46.83;21.33;;;;;;;;;;5021457;28;20530;-78
2023/12/09 01:18:06;;;;;;;44.43;17.57;;;;;;;;;;5019631;28;20516;-77
2023/12/09 01:20:36;;;;;;;46.47;17.63;;;;;;;;;;5021763;28;20473;-79
2023/12/09 01:23:04;;;;;;;56.10;20.70;;;;;;;;;;5021898;28;20529;-78
2023/12/09 01:25:31;;;;;;;61.97;19.30;;;;;;;;;;5023812;28;20465;-81
2023/12/09 01:27:59;;;;;;;47.50;17.87;;;;;;;;;;5023673;28;20521;-80
2023/12/09 01:30:26;;;;;;;46.40;17.13;;;;;;;;;;5023081;28;20452;-79
2023/12/09 01:32:54;;;;;;;49.27;17.97;;;;;;;;;;5023790;28;20486;-78
2023/12/09 01:35:21;;;;;;;58.23;20.53;;;;;;;;;;5024495;28;20457;-79
2023/12/09 01:37:57;;;;;;;51.70;18.37;;;;;;;;;;5024130;28;20461;-79
2023/12/09 01:40:24;;;;;;;43.93;18.17;;;;;;;;;;5025185;28;20474;-78
2023/12/09 01:42:53;;;;;;;52.17;18.53;;;;;;;;;;5024393;28;20489;-79
2023/12/09 01:45:21;;;;;;;48.20;17.60;;;;;;;;;;5026762;28;20521;-79
2023/12/09 01:47:49;;;;;;;58.83;19.83;;;;;;;;;;5032159;28;20486;-80
2023/12/09 01:50:18;;;;;;;54.10;16.13;;;;;;;;;;5032430;28;20458;-80
2023/12/09 01:52:46;;;;;;;49.37;18.63;;;;;;;;;;5031483;28;20489;-78
2023/12/09 01:55:15;;;;;;;50.13;17.10;;;;;;;;;;5031716;28;20462;-78
2023/12/09 01:57:43;;;;;;;48.20;18.13;;;;;;;;;;5030846;28;20463;-78
2023/12/09 02:00:12;;;;;;;68.03;19.97;;;;;;;;;;5031540;28;20458;-79
2023/12/09 02:02:43;;;;;;;46.17;16.93;;;;;;;;;;5035000;28;20451;-79
2023/12/09 02:05:12;;;;;;;48.57;17.87;;;;;;;;;;5034744;28;20463;-79
2023/12/09 02:07:39;;;;;;;49.87;17.80;;;;;;;;;;5033945;28;20547;-79
2023/12/09 02:10:07;;;;;;;53.20;17.70;;;;;;;;;;5033657;28;20472;-77
2023/12/09 02:12:42;;;;;;;43.57;16.43;;;;;;;;;;5030741;28;20567;-79
2023/12/09 02:15:13;;;;;;;48.80;17.87;;;;;;;;;;5028295;28;20450;-79
2023/12/09 02:17:42;;;;;;;49.10;17.37;;;;;;;;;;5027420;28;20455;-79
2023/12/09 02:20:12;;;;;;;49.93;19.20;;;;;;;;;;5028141;28;20473;-78
2023/12/09 02:22:40;;;;;;;49.93;17.80;;;;;;;;;;5025832;28;20449;-78
2023/12/09 02:25:09;;;;;;;51.57;17.13;;;;;;;;;;5023910;28;20469;-78
2023/12/09 02:27:40;;;;;;;46.60;17.17;;;;;;;;;;5025873;28;20508;-78
2023/12/09 02:30:10;;;;;;;58.97;19.80;;;;;;;;;;5026251;28;20476;-79
2023/12/09 02:32:39;;;;;;;64.60;17.17;;;;;;;;;;5026115;28;20489;-78
2023/12/09 02:35:08;;;;;;;63.93;20.33;;;;;;;;;;5024957;28;20476;-78
2023/12/09 02:37:37;;;;;;;45.33;17.30;;;;;;;;;;5027049;28;20485;-78
2023/12/09 02:40:15;;;;;;;60.67;19.07;;;;;;;;;;5028146;28;20478;-78
2023/12/09 02:42:43;;;;;;;67.23;20.80;;;;;;;;;;5028302;28;20508;-78
2023/12/09 02:45:12;;;;;;;51.30;18.10;;;;;;;;;;5028480;28;20505;-79
2023/12/09 02:47:41;;;;;;;58.90;17.93;;;;;;;;;;5029758;28;20454;-79
2023/12/09 02:50:09;;;;;;;45.30;18.80;;;;;;;;;;5028836;28;20469;-80
2023/12/09 02:52:37;;;;;;;54.47;17.40;;;;;;;;;;5028165;28;20746;-77
2023/12/09 02:55:05;;;;;;;73.77;20.13;;;;;;;;;;5026368;28;20477;-79
2023/12/09 02:57:34;;;;;;;59.87;19.17;;;;;;;;;;5026683;28;20504;-80
2023/12/09 03:00:09;;;;;;;60.37;21.20;;;;;;;;;;5026266;28;20452;-80
2023/12/09 03:02:37;;;;;;;59.60;17.47;;;;;;;;;;5026406;28;20874;-79
2023/12/09 03:05:05;;;;;;;56.00;17.37;;;;;;;;;;5025776;28;20461;-79
2023/12/09 03:07:32;;;;;;;64.07;19.07;;;;;;;;;;5025224;28;20519;-80
2023/12/09 03:10:00;;;;;;;51.87;17.10;;;;;;;;;;5024490;28;20459;-81
2023/12/09 03:12:27;;;;;;;54.87;19.00;;;;;;;;;;5024897;28;20784;-78
2023/12/09 03:14:56;;;;;;;54.37;18.50;;;;;;;;;;5025429;28;20455;-78
2023/12/09 03:17:24;;;;;;;63.70;20.90;;;;;;;;;;5025921;28;20462;-79
2023/12/09 03:19:52;;;;;;;54.07;18.70;;;;;;;;;;5025013;28;20458;-79
2023/12/09 03:22:19;;;;;;;58.13;20.37;;;;;;;;;;5025698;28;20455;-77
2023/12/09 03:24:47;;;;;;;48.10;17.53;;;;;;;;;;5025691;28;20453;-79
2023/12/09 03:27:15;;;;;;;53.70;19.63;;;;;;;;;;5022929;28;20472;-78
2023/12/09 03:29:43;;;;;;;54.10;19.10;;;;;;;;;;5023513;28;20463;-77
2023/12/09 03:32:12;;;;;;;61.93;20.70;;;;;;;;;;5024150;28;20747;-77
2023/12/09 03:34:39;;;;;;;55.17;18.90;;;;;;;;;;5021676;28;20557;-77
2023/12/09 03:37:07;;;;;;;52.97;17.73;;;;;;;;;;5023425;28;20466;-79
2023/12/09 03:39:35;;;;;;;57.13;19.10;;;;;;;;;;5023717;28;20461;-78
2023/12/09 03:42:03;;;;;;;54.10;18.43;;;;;;;;;;5028207;28;20453;-78
2023/12/09 03:44:32;;;;;;;68.67;19.83;;;;;;;;;;5029561;28;20453;-79
2023/12/09 03:47:00;;;;;;;66.27;19.67;;;;;;;;;;5030579;28;20462;-79
2023/12/09 03:49:29;;;;;;;49.70;20.57;;;;;;;;;;5029679;28;20462;-78
2023/12/09 03:51:56;;;;;;;68.20;21.40;;;;;;;;;;5029018;28;20488;-79
2023/12/09 03:54:24;;;;;;;50.67;19.70;;;;;;;;;;5027311;28;20495;-79
2023/12/09 03:56:52;;;;;;;63.00;21.00;;;;;;;;;;5027007;28;20446;-80
2023/12/09 03:59:19;;;;;;;72.43;22.53;;;;;;;;;;5027424;28;20882;-80
2023/12/09 04:01:48;;;;;;;46.90;18.70;;;;;;;;;;5028965;28;20463;-78
2023/12/09 04:04:15;;;;;;;55.00;20.93;;;;;;;;;;5028722;28;20437;-78
2023/12/09 04:06:44;;;;;;;57.83;22.07;;;;;;;;;;5027080;28;20548;-78
2023/12/09 04:09:12;;;;;;;56.23;19.40;;;;;;;;;;5025162;28;20524;-78
2023/12/09 04:11:40;;;;;;;54.10;20.97;;;;;;;;;;5025590;28;20489;-79
2023/12/09 04:14:08;;;;;;;48.07;21.83;;;;;;;;;;5025934;28;20462;-79
2023/12/09 04:16:35;;;;;;;44.37;19.50;;;;;;;;;;5026038;28;20492;-80
2023/12/09 04:19:03;;;;;;;51.73;19.60;;;;;;;;;;5026281;28;20465;-80
2023/12/09 04:21:30;;;;;;;44.90;19.00;;;;;;;;;;5027924;28;20488;-79
2023/12/09 04:23:59;;;;;;;54.73;19.43;;;;;;;;;;5028096;28;20453;-79
2023/12/09 04:26:27;;;;;;;56.70;19.70;;;;;;;;;;5029145;28;20442;-79
2023/12/09 04:28:55;;;;;;;46.13;20.13;;;;;;;;;;5028509;28;20461;-80
2023/12/09 04:31:22;;;;;;;46.93;20.67;;;;;;;;;;5028950;28;20465;-78
2023/12/09 04:33:50;;;;;;;45.43;18.17;;;;;;;;;;5027111;28;20501;-79
2023/12/09 04:36:18;;;;;;;51.30;20.47;;;;;;;;;;5026321;28;20461;-77
2023/12/09 04:38:45;;;;;;;44.93;19.83;;;;;;;;;;5026918;28;20449;-80
2023/12/09 04:41:15;;;;;;;56.60;21.10;;;;;;;;;;5026622;28;20461;-80
2023/12/09 04:43:42;;;;;;;46.70;21.20;;;;;;;;;;5025658;28;20457;-79
2023/12/09 04:46:10;;;;;;;53.63;19.53;;;;;;;;;;5026604;28;20490;-78
2023/12/09 04:48:37;;;;;;;51.33;19.80;;;;;;;;;;5023809;28;20520;-79
2023/12/09 04:51:05;;;;;;;46.53;20.00;;;;;;;;;;5022868;28;20534;-78
2023/12/09 04:53:32;;;;;;;53.07;20.00;;;;;;;;;;5023845;28;20762;-78
2023/12/09 04:56:00;;;;;;;52.10;21.13;;;;;;;;;;5024182;28;20461;-80
2023/12/09 04:58:29;;;;;;;43.80;18.57;;;;;;;;;;5023736;28;20465;-79
2023/12/09 05:00:57;;;;;;;44.00;18.60;;;;;;;;;;5025745;28;20479;-78
2023/12/09 05:03:24;;;;;;;45.93;20.70;;;;;;;;;;5025284;28;20454;-79
2023/12/09 05:05:52;;;;;;;57.07;19.80;;;;;;;;;;5026493;28;20456;-78
2023/12/09 05:08:20;;;;;;;51.50;20.53;;;;;;;;;;5025448;28;20457;-78
2023/12/09 05:10:47;;;;;;;52.83;22.50;;;;;;;;;;5025933;28;20454;-78
2023/12/09 05:13:15;;;;;;;42.10;20.53;;;;;;;;;;5024159;28;20553;-78
2023/12/09 05:15:48;;;;;;;47.73;19.77;;;;;;;;;;5023680;28;20501;-78
2023/12/09 05:18:16;;;;;;;42.93;17.77;;;;;;;;;;5026579;28;20463;-79
2023/12/09 05:20:44;;;;;;;43.33;19.80;;;;;;;;;;5025150;28;20484;-79
2023/12/09 05:23:11;;;;;;;49.13;20.63;;;;;;;;;;5023493;28;20596;-79
2023/12/09 05:25:39;;;;;;;50.03;19.00;;;;;;;;;;5021711;28;20490;-80
2023/12/09 05:28:07;;;;;;;50.80;20.53;;;;;;;;;;5023137;28;20487;-78
2023/12/09 05:30:35;;;;;;;49.13;20.73;;;;;;;;;;5024601;28;20461;-80
2023/12/09 05:33:04;;;;;;;43.60;20.40;;;;;;;;;;5023527;28;20485;-79
2023/12/09 05:35:32;;;;;;;43.90;18.90;;;;;;;;;;5026901;28;20450;-79
2023/12/09 05:38:00;;;;;;;51.57;19.40;;;;;;;;;;5028219;28;20503;-80
2023/12/09 05:40:27;;;;;;;46.37;19.83;;;;;;;;;;5029895;28;20813;-80
2023/12/09 05:42:55;;;;;;;53.90;20.00;;;;;;;;;;5030104;28;20746;-80
2023/12/09 05:45:26;;;;;;;45.47;18.60;;;;;;;;;;5031187;28;20482;-80
2023/12/09 05:48:00;;;;;;;49.17;18.47;;;;;;;;;;5030695;28;20508;-78
2023/12/09 05:50:29;;;;;;;38.60;18.50;;;;;;;;;;5032404;28;20764;-78
2023/12/09 05:52:56;;;;;;;40.30;20.70;;;;;;;;;;5049550;28;20484;-80
2023/12/09 05:55:24;;;;;;;42.27;18.90;;;;;;;;;;5048248;28;20896;-79
2023/12/09 05:57:52;;;;;;;52.60;20.93;;;;;;;;;;5048891;28;20460;-79
2023/12/09 06:00:19;;;;;;;45.83;19.43;;;;;;;;;;5051222;28;20461;-78
2023/12/09 06:02:47;;;;;;;43.80;19.10;;;;;;;;;;5049583;28;20861;-79
2023/12/09 06:05:15;;;;;;;43.20;20.97;;;;;;;;;;5050264;28;20885;-78
2023/12/09 06:07:44;;;;;;;43.37;18.27;;;;;;;;;;5050182;28;20833;-78
2023/12/09 06:10:15;;;;;;;43.90;18.50;;;;;;;;;;5050525;28;20465;-78
2023/12/09 06:12:42;;;;;;;35.47;17.93;;;;;;;;;;5050875;28;20481;-80
2023/12/09 06:15:11;;;;;;;47.70;21.03;;;;;;;;;;5051581;28;20551;-79
2023/12/09 06:17:39;;;;;;;33.60;18.60;;;;;;;;;;5050369;28;20468;-80
2023/12/09 06:20:10;;;;;;;39.17;18.70;;;;;;;;;;5049518;28;20455;-78
2023/12/09 06:22:37;;;;;;;48.60;17.73;;;;;;;;;;5050834;28;20475;-79
2023/12/09 06:25:12;;;;;;;42.10;19.07;;;;;;;;;;5046940;28;20465;-78
2023/12/09 06:27:40;;;;;;;41.33;18.10;;;;;;;;;;5045993;28;20461;-79
2023/12/09 06:30:10;;;;;;;30.83;16.23;;;;;;;;;;5044161;28;20491;-78
2023/12/09 06:32:38;;;;;;;44.40;18.90;;;;;;;;;;5041153;28;20452;-78
2023/12/09 06:35:06;;;;;;;35.00;16.63;;;;;;;;;;5040845;28;20450;-78
2023/12/09 06:37:33;;;;;;;40.77;17.20;;;;;;;;;;5044478;28;20432;-79
2023/12/09 06:40:09;;;;;;;28.83;15.80;;;;;;;;;;5046767;28;20460;-78
2023/12/09 06:42:38;;;;;;;36.47;15.87;;;;;;;;;;5048288;28;20461;-78
2023/12/09 06:45:09;;;;;;;36.93;16.50;;;;;;;;;;5045114;28;20543;-80
2023/12/09 06:47:36;;;;;;;40.53;16.17;;;;;;;;;;5043003;28;20523;-81
2023/12/09 06:50:08;;;;;;;42.53;17.97;;;;;;;;;;5044560;28;20449;-79
2023/12/09 06:52:37;;;;;;;39.07;17.30;;;;;;;;;;5045992;28;20454;-79
2023/12/09 06:55:05;;;;;;;27.87;15.23;;;;;;;;;;5044580;28;20474;-79
2023/12/09 06:57:33;;;;;;;30.23;15.17;;;;;;;;;;5042745;28;20523;-78
2023/12/09 07:00:08;;;;;;;37.20;14.67;;;;;;;;;;5041451;28;20531;-79
2023/12/09 07:02:36;;;;;;;35.70;17.27;;;;;;;;;;5041043;28;20487;-80
2023/12/09 07:05:03;;;;;;;34.87;16.43;;;;;;;;;;5042209;28;20453;-80
2023/12/09 07:07:31;;;;;;;31.13;16.17;;;;;;;;;;5041342;28;20652;-80
2023/12/09 07:09:59;;;;;;;30.10;15.60;;;;;;;;;;5044365;28;20459;-80
2023/12/09 07:12:27;;;;;;;35.60;17.10;;;;;;;;;;5046163;28;20450;-80
2023/12/09 07:14:56;;;;;;;33.43;16.53;;;;;;;;;;5045698;28;20493;-80
2023/12/09 07:17:25;;;;;;;32.37;15.57;;;;;;;;;;5045428;28;20461;-80
2023/12/09 07:19:53;;;;;;;30.57;15.57;;;;;;;;;;5045455;28;20543;-80
2023/12/09 07:22:20;;;;;;;28.27;14.80;;;;;;;;;;5044596;28;20506;-80
2023/12/09 07:24:51;;;;;;;31.63;14.80;;;;;;;;;;5041960;28;20462;-79
2023/12/09 07:27:19;;;;;;;38.10;17.43;;;;;;;;;;5039088;28;20453;-79
2023/12/09 07:29:47;;;;;;;37.50;16.47;;;;;;;;;;5038278;28;20455;-78
2023/12/09 07:32:14;;;;;;;34.33;16.33;;;;;;;;;;5042469;28;20459;-80
2023/12/09 07:34:43;;;;;;;37.40;16.40;;;;;;;;;;5041837;28;20745;-78
2023/12/09 07:37:14;;;;;;;33.57;14.50;;;;;;;;;;5039904;28;20490;-78
2023/12/09 07:39:42;;;;;;;35.43;16.63;;;;;;;;;;5041852;28;20442;-78
2023/12/09 07:42:09;;;;;;;30.90;15.07;;;;;;;;;;5041789;28;20613;-78
2023/12/09 07:44:37;;;;;;;28.93;15.60;;;;;;;;;;5039634;28;20461;-78
2023/12/09 07:47:05;;;;;;;29.60;14.90;;;;;;;;;;5042589;28;20480;-80
2023/12/09 07:49:32;;;;;;;30.43;15.33;;;;;;;;;;5041584;28;20480;-80
2023/12/09 07:52:01;;;;;;;29.17;14.83;;;;;;;;;;5041946;28;20704;-79
2023/12/09 07:54:29;;;;;;;26.60;14.30;;;;;;;;;;5041707;28;20500;-78
2023/12/09 07:56:57;;;;;;;32.33;16.43;;;;;;;;;;5043756;28;20456;-78
2023/12/09 07:59:24;;;;;;;28.17;15.13;;;;;;;;;;5040970;28;20539;-78
2023/12/09 08:01:54;;;;;;;25.97;14.13;;;;;;;;;;5043300;28;20507;-79
2023/12/09 08:04:27;;;;;;;30.57;14.93;;;;;;;;;;5042909;28;20454;-78
2023/12/09 08:06:55;;;;;;;31.50;14.63;;;;;;;;;;5042809;28;20478;-79
2023/12/09 08:09:24;;;;;;;25.73;13.23;;;;;;;;;;5041123;28;20479;-78
2023/12/09 08:11:51;;;;;;;28.53;15.17;;;;;;;;;;5041558;28;20537;-79
2023/12/09 08:14:19;;;;;;;24.60;15.00;;;;;;;;;;5040280;28;20500;-79
2023/12/09 08:16:47;;;;;;;28.80;13.27;;;;;;;;;;5040056;28;20647;-78
2023/12/09 08:19:14;;;;;;;30.17;13.57;;;;;;;;;;5039678;28;20540;-77
2023/12/09 08:21:43;;;;;;;29.23;15.93;;;;;;;;;;5040679;28;20476;-80
2023/12/09 08:24:15;;;;;;;27.57;13.87;;;;;;;;;;5043219;28;20461;-79
2023/12/09 08:26:46;;;;;;;35.33;15.63;;;;;;;;;;5044001;28;20782;-78
2023/12/09 08:29:24;;;;;;;31.37;15.53;;;;;;;;;;5045154;28;20492;-78
2023/12/09 08:32:01;;;;;;;31.97;13.33;;;;;;;;;;5048773;28;20507;-79
2023/12/09 08:34:31;;;;;;;26.90;14.97;;;;;;;;;;5051186;28;20488;-79
2023/12/09 08:36:58;;;;;;;26.57;14.93;;;;;;;;;;5049619;28;20527;-79
2023/12/09 08:39:27;;;;;;;28.90;15.37;;;;;;;;;;5049367;28;20903;-79
2023/12/09 08:41:57;;;;;;;24.80;15.17;;;;;;;;;;5046166;28;20467;-81
2023/12/09 08:44:25;;;;;;;32.30;14.50;;;;;;;;;;5044084;28;20448;-79
2023/12/09 08:46:57;;;;;;;50.97;28.53;;;;;;;;;;5045245;28;20457;-80
2023/12/09 08:49:32;;;;;;;40.27;21.47;;;;;;;;;;5044406;28;20696;-79
2023/12/09 08:52:00;;;;;;;31.57;14.50;;;;;;;;;;5044493;28;20740;-79
2023/12/09 08:54:30;;;;;;;30.67;14.57;;;;;;;;;;5044131;28;20501;-80
2023/12/09 08:57:03;;;;;;;35.40;14.93;;;;;;;;;;5046928;28;20456;-79
2023/12/09 08:59:31;;;;;;;28.30;14.47;;;;;;;;;;5044130;28;20590;-79
2023/12/09 09:02:00;;;;;;;27.27;14.60;;;;;;;;;;5043996;28;20452;-78
2023/12/09 09:04:32;;;;;;;28.33;14.77;;;;;;;;;;5044437;28;20529;-76
2023/12/09 09:07:01;;;;;;;30.47;14.87;;;;;;;;;;5044680;28;20453;-80
2023/12/09 09:09:29;;;;;;;22.77;12.97;;;;;;;;;;5047093;28;20457;-79
2023/12/09 09:11:59;;;;;;;25.83;13.70;;;;;;;;;;5046613;28;20491;-79
2023/12/09 09:14:29;;;;;;;23.03;13.10;;;;;;;;;;5044559;28;20523;-80
2023/12/09 09:16:57;;;;;;;30.10;14.90;;;;;;;;;;5045404;28;20461;-79
2023/12/09 09:19:25;;;;;;;30.07;14.83;;;;;;;;;;5046440;28;20555;-77
2023/12/09 09:21:53;;;;;;;22.13;15.10;;;;;;;;;;5046100;28;20465;-78
2023/12/09 09:24:21;;;;;;;25.20;13.10;;;;;;;;;;5044785;28;20464;-78
2023/12/09 09:26:50;;;;;;;27.87;12.40;;;;;;;;;;5044119;28;20466;-78
2023/12/09 09:29:18;;;;;;;31.20;14.80;;;;;;;;;;5041736;28;20782;-79
2023/12/09 09:31:48;;;;;;;30.47;13.60;;;;;;;;;;5043054;28;20705;-78
2023/12/09 09:34:17;;;;;;;24.37;13.47;;;;;;;;;;5043306;28;20961;-78
2023/12/09 09:36:45;;;;;;;21.63;12.70;;;;;;;;;;5044011;28;20499;-80
2023/12/09 09:39:13;;;;;;;33.53;14.17;;;;;;;;;;5042459;28;20468;-77
2023/12/09 09:41:50;;;;;;;26.43;13.97;;;;;;;;;;5042561;28;20521;-77
2023/12/09 09:44:24;;;;;;;26.93;14.47;;;;;;;;;;5039783;28;20658;-78
2023/12/09 09:46:58;;;;;;;32.00;12.73;;;;;;;;;;5040893;28;20444;-78
2023/12/09 09:49:26;;;;;;;32.10;12.80;;;;;;;;;;5041143;28;20473;-78
2023/12/09 09:51:59;;;;;;;21.70;12.43;;;;;;;;;;5041388;28;20611;-79
2023/12/09 09:54:32;;;;;;;26.50;13.50;;;;;;;;;;5040423;28;20489;-78
2023/12/09 09:57:04;;;;;;;21.07;13.30;;;;;;;;;;5039931;28;20498;-78
2023/12/09 09:59:34;;;;;;;26.20;12.30;;;;;;;;;;5037594;28;20869;-77
2023/12/09 10:02:06;;;;;;;22.27;12.77;;;;;;;;;;5038747;28;20468;-78
2023/12/09 10:04:42;;;;;;;23.97;11.57;;;;;;;;;;5039959;28;20454;-79
2023/12/09 10:07:12;;;;;;;24.87;12.47;;;;;;;;;;5039865;28;20463;-78
2023/12/09 10:09:44;;;;;;;27.47;14.90;;;;;;;;;;5040629;28;20488;-79
2023/12/09 10:12:13;;;;;;;28.97;14.63;;;;;;;;;;5042322;28;20449;-80
2023/12/09 10:14:42;;;;;;;22.77;11.77;;;;;;;;;;5034958;28;20714;-78
2023/12/09 10:17:13;;;;;;;22.20;13.53;;;;;;;;;;5040422;28;20457;-78
2023/12/09 10:19:42;;;;;;;21.50;12.70;;;;;;;;;;5041947;28;20724;-78
2023/12/09 10:22:09;;;;;;;26.00;14.60;;;;;;;;;;5042055;28;20446;-78
2023/12/09 10:24:38;;;;;;;23.73;12.63;;;;;;;;;;5042764;28;20483;-78
2023/12/09 10:27:06;;;;;;;22.80;12.40;;;;;;;;;;5043900;28;20794;-78
2023/12/09 10:29:34;;;;;;;24.23;12.87;;;;;;;;;;5043855;28;20559;-80
2023/12/09 10:32:02;;;;;;;28.33;11.53;;;;;;;;;;5046545;28;20452;-79
2023/12/09 10:34:32;;;;;;;21.07;12.50;;;;;;;;;;5046493;28;20526;-79
2023/12/09 10:37:00;;;;;;;27.93;13.40;;;;;;;;;;5044810;28;20837;-79
2023/12/09 10:39:29;;;;;;;25.90;11.80;;;;;;;;;;5043461;28;20678;-78
2023/12/09 10:41:59;;;;;;;19.50;11.77;;;;;;;;;;5044515;28;20487;-78
2023/12/09 10:44:27;;;;;;;17.63;10.30;;;;;;;;;;5043727;28;20464;-79
2023/12/09 10:46:55;;;;;;;22.70;11.33;;;;;;;;;;5048052;28;20468;-79
2023/12/09 10:49:23;;;;;;;24.90;11.10;;;;;;;;;;5044335;28;20505;-80
2023/12/09 10:51:52;;;;;;;16.70;10.97;;;;;;;;;;5041838;28;20478;-79
2023/12/09 10:54:20;;;;;;;17.23;10.80;;;;;;;;;;5042780;28;20485;-77
2023/12/09 10:56:47;;;;;;;16.33;8.47;;;;;;;;;;5039463;28;20459;-78
2023/12/09 10:59:16;;;;;;;24.13;10.73;;;;;;;;;;5041607;28;20526;-78
2023/12/09 11:01:44;;;;;;;20.10;11.77;;;;;;;;;;5041066;28;20461;-78
2023/12/09 11:04:13;;;;;;;17.53;10.40;;;;;;;;;;5040507;28;20549;-78
2023/12/09 11:06:42;;;;;;;21.23;9.10;;;;;;;;;;5042276;28;20549;-78
2023/12/09 11:09:13;;;;;;;17.43;9.90;;;;;;;;;;5041487;28;20448;-79
2023/12/09 11:11:43;;;;;;;21.20;9.97;;;;;;;;;;5044057;28;20781;-79
2023/12/09 11:14:11;;;;;;;18.30;10.90;;;;;;;;;;5034473;28;20481;-79
2023/12/09 11:16:52;;;;;;;23.57;10.97;;;;;;;;;;5048025;28;20458;-79
2023/12/09 11:19:26;;;;;;;21.57;9.50;;;;;;;;;;5045309;28;20655;-79
2023/12/09 11:21:53;;;;;;;16.10;9.40;;;;;;;;;;5043025;28;20480;-78
2023/12/09 11:24:29;;;;;;;15.67;9.60;;;;;;;;;;5040495;28;20485;-77
2023/12/09 11:26:58;;;;;;;25.60;10.47;;;;;;;;;;5042378;28;20478;-78
2023/12/09 11:29:26;;;;;;;19.13;9.93;;;;;;;;;;5044524;28;20452;-77
2023/12/09 11:31:57;;;;;;;16.23;8.57;;;;;;;;;;5044562;28;20449;-78
2023/12/09 11:34:29;;;;;;;18.27;8.73;;;;;;;;;;5044973;28;20482;-80
2023/12/09 11:37:01;;;;;;;12.20;7.80;;;;;;;;;;5045670;28;20479;-80
2023/12/09 11:39:41;;;;;;;18.27;9.30;;;;;;;;;;5045124;28;20479;-80
2023/12/09 11:42:16;;;;;;;15.43;9.03;;;;;;;;;;5045887;28;20464;-77
2023/12/09 11:44:49;;;;;;;16.13;9.77;;;;;;;;;;5044588;28;20448;-78
2023/12/09 11:47:21;;;;;;;22.80;12.50;;;;;;;;;;5046007;28;20689;-79
2023/12/09 11:49:49;;;;;;;17.67;10.00;;;;;;;;;;5026620;28;20469;-76
2023/12/09 11:52:23;;;;;;;17.60;11.60;;;;;;;;;;5042881;28;20549;-78
2023/12/09 11:55:10;;;;;;;10.97;7.27;;;;;;;;;;5044823;28;20588;-79
2023/12/09 11:57:40;;;;;;;18.73;10.43;;;;;;;;;;5043787;28;20530;-78
2023/12/09 12:00:15;;;;;;;13.67;8.63;;;;;;;;;;5044793;28;20859;-78
2023/12/09 12:02:44;;;;;;;16.50;10.03;;;;;;;;;;5042992;28;20942;-77
2023/12/09 12:05:12;;;;;;;12.40;6.90;;;;;;;;;;5038281;28;20681;-78
2023/12/09 12:07:40;;;;;;;19.50;9.63;;;;;;;;;;5036996;28;20477;-77
2023/12/09 12:10:11;;;;;;;27.77;13.30;;;;;;;;;;5041885;28;20461;-79
2023/12/09 12:12:40;;;;;;;15.43;9.67;;;;;;;;;;5044137;28;20718;-78
2023/12/09 12:15:13;;;;;;;17.07;9.03;;;;;;;;;;5042299;28;20489;-79
2023/12/09 12:17:57;;;;;;;15.60;8.83;;;;;;;;;;5037373;28;20461;-79
2023/12/09 12:20:26;;;;;;;18.73;10.23;;;;;;;;;;5043599;28;20447;-79
2023/12/09 12:22:55;;;;;;;22.07;8.97;;;;;;;;;;5042391;28;20438;-78
2023/12/09 12:25:28;;;;;;;23.37;10.63;;;;;;;;;;5042481;28;20468;-81
2023/12/09 12:27:57;;;;;;;18.87;9.43;;;;;;;;;;5038488;28;20472;-78
2023/12/09 12:30:26;;;;;;;16.30;9.20;;;;;;;;;;5038589;28;20566;-78
2023/12/09 12:32:58;;;;;;;16.43;9.37;;;;;;;;;;5037869;28;20923;-79
2023/12/09 12:35:26;;;;;;;17.03;9.43;;;;;;;;;;5037900;28;20522;-79
2023/12/09 12:37:57;;;;;;;20.07;11.43;;;;;;;;;;5038462;28;20495;-79
2023/12/09 12:40:27;;;;;;;17.00;8.77;;;;;;;;;;5042676;28;20435;-77
2023/12/09 12:42:58;;;;;;;17.33;8.43;;;;;;;;;;5043447;28;20476;-78
2023/12/09 12:45:27;;;;;;;17.40;10.07;;;;;;;;;;5043101;28;20450;-78
2023/12/09 12:47:55;;;;;;;11.60;7.70;;;;;;;;;;5041933;28;20452;-78
2023/12/09 13:18:12;;;;;;;16.80;9.30;;;;;;;;;;5030715;28;20817;-76
2023/12/09 15:08:26;;;;;;;;;;;;;;;;;;;;;
2023/12/09 15:11:42;;;;;;;;;;;;;;;;;;;;;
2023/12/09 15:14:33;;;;;;;9.30;5.57;;;;;;;;;;5036081;28;20484;-77
2023/12/09 15:20:15;;;;;;;13.60;6.00;;;;;;;;;;5027603;28;20487;-77
2023/12/09 15:23:03;;;;;;;10.00;5.37;;;;;;;;;;5009863;28;20469;-77
2023/12/09 15:37:42;;;;;;;12.20;6.40;;;;;;;;;;5025693;28;20305;-76
2023/12/09 15:46:56;;;;;;;;;;;;;;;;;;;;;
2023/12/09 15:49:40;;;;;;;18.87;8.87;;;;;;;;;;5015717;28;20552;-78
2023/12/09 15:58:33;;;;;;;13.20;5.97;;;;;;;;;;5022741;28;20474;-78
2023/12/09 16:01:16;;;;;;;21.63;7.50;;;;;;;;;;5037977;28;20609;-77
2023/12/09 16:03:55;;;;;;;13.40;7.87;;;;;;;;;;5003310;28;20580;-77
2023/12/09 16:06:48;;;;;;;10.80;4.60;;;;;;;;;;5017398;28;21005;-75
2023/12/09 16:09:19;;;;;;;11.73;5.73;;;;;;;;;;5009668;28;21010;-76
2023/12/09 16:12:22;;;;;;;8.43;4.00;;;;;;;;;;5002005;28;20461;-76
2023/12/09 16:15:03;;;;;;;9.37;5.00;;;;;;;;;;4999778;28;20457;-76
2023/12/09 16:18:02;;;;;;;11.23;5.23;;;;;;;;;;4810739;27;9335002;-77
2023/12/09 16:20:41;;;;;;;7.17;4.03;;;;;;;;;;5116670;28;20202;-77
2023/12/09 16:23:35;;;;;;;12.07;5.67;;;;;;;;;;5118793;28;21189;-75
2023/12/09 16:26:09;;;;;;;7.63;4.70;;;;;;;;;;5110577;28;20472;-77
2023/12/09 16:28:38;;;;;;;10.70;5.27;;;;;;;;;;5096212;28;20466;-77
2023/12/09 16:31:08;;;;;;;10.20;5.40;;;;;;;;;;5116347;28;20518;-77
2023/12/09 16:33:57;;;;;;;11.80;5.37;;;;;;;;;;5126002;28;20545;-75
2023/12/09 16:36:50;;;;;;;16.93;10.80;;;;;;;;;;5127070;28;20574;-77
2023/12/09 16:42:53;;;;;;;15.53;6.40;;;;;;;;;;5117386;28;20472;-76
2023/12/09 16:50:49;;;;;;;12.53;6.07;;;;;;;;;;5081577;28;20541;-76
2023/12/09 16:53:19;;;;;;;20.30;7.83;;;;;;;;;;5092370;28;21046;-76
2023/12/09 16:55:50;;;;;;;15.40;5.93;;;;;;;;;;5091814;28;20914;-77
2023/12/09 16:58:30;;;;;;;16.93;6.97;;;;;;;;;;5090343;28;20459;-77
2023/12/09 17:01:10;;;;;;;10.03;5.70;;;;;;;;;;5077991;28;20463;-77
2023/12/09 17:03:47;;;;;;;10.43;5.17;;;;;;;;;;5078018;28;20512;-78
2023/12/09 17:06:29;;;;;;;10.50;6.30;;;;;;;;;;5077824;28;20827;-77
2023/12/09 17:15:16;;;;;;;14.07;5.93;;;;;;;;;;5093408;28;20447;-77
2023/12/09 17:24:12;;;;;;;11.87;5.63;;;;;;;;;;5075859;28;20466;-76
2023/12/09 17:26:52;;;;;;;12.30;6.27;;;;;;;;;;5068758;28;20441;-75
2023/12/09 17:29:23;;;;;;;14.70;8.53;;;;;;;;;;5056895;28;20447;-76
2023/12/09 17:31:51;;;;;;;13.13;6.37;;;;;;;;;;5056317;28;20448;-75
2023/12/09 17:34:26;;;;;;;9.27;6.10;;;;;;;;;;5055067;28;20464;-76
2023/12/09 17:37:02;;;;;;;17.47;8.30;;;;;;;;;;5057524;28;20535;-77
2023/12/09 17:39:37;;;;;;;13.50;8.70;;;;;;;;;;5056640;28;20456;-76
2023/12/09 17:42:10;;;;;;;13.20;4.87;;;;;;;;;;5065215;28;20979;-76
2023/12/09 17:44:55;;;;;;;11.90;6.47;;;;;;;;;;5072982;28;20493;-76
2023/12/09 17:47:24;;;;;;;7.70;5.10;;;;;;;;;;5075452;28;20550;-76